Morrowville, Kansas
Current Conditions -  °F | °C
As of 7:55 AM on Monday 24 Nov 2014 (Local Time) from KMYZ Reporting Station
Overcast Overcast  
Wind Chill: 20°   Ceiling: 3400
Heat Index: 32°   Visibility: 10mi
Dew Point: 21°   Wind: 20mph
Humidity: 64%   Direction: 310°NW
Pressure: 29.71"   Gusts: 26mph
Location:  39.84°N, 97.17°W
Report Text: KMYZ 241355Z AUTO 31017G23KT 10SM BKN034 OVC065 00/M06 A2971 RMK AO2
Loading
Personal Weather Stations






























Interactive Weather Map New forecast layout! Learn more

10-Day Weather Forecast

Advertisements
Track Severe Weather on mobile